Impacts TAF Board
For situational awareness. Not to be used for flight planning purposes.
IDs:

KGTR - Golden Triangle Arpt, MS, US

Issued at 1123 UTC 16 Aug 2022
Updated at 1335 UTC 16 Aug 2022
Potential Impact None Slight Moderate High
Time<<17/02Z 17/03Z 17/04Z 17/05Z 17/06Z 17/07Z 17/08Z 17/09Z 17/10Z 17/11Z 17/12Z 17/13Z 17/14Z>>
Type PRVL PRVL PRVL PRVL PRVL PRVL PRVL PRVL PRVL PRVL
VIS >6 >6 >6 >6 >6 >6 >6 >6 >6 >6
CIG -- -- -- -- 250 250 250 250 250 250
Cover SCT SCT SCT SCT BKN BKN BKN BKN BKN BKN
FltCat VFR VFR VFR VFR VFR VFR VFR VFR VFR VFR
WX VCSH VCSH VCSH VCSH -- -- -- -- -- --
WDir 350 350 350 350 20 20 20 20 20 20
WSpd 7 7 7 7 3 3 3 3 3 3
WGst -- -- -- -- -- -- -- -- -- --
WSHgt -- -- -- -- -- -- -- -- -- --
WSDir -- -- -- -- -- -- -- -- -- --
WSSpd -- -- -- -- -- -- -- -- -- --
Raw TAF
KGTR 161123Z 1612/1712 33003KT P6SM SKC
  FM161500 35006KT P6SM SCT050
  FM162000 35007KT P6SM VCSH SCT050
  FM170600 02003KT P6SM BKN250


METAR Board
Radar Display
Forecast Discussion
For situational awareness. Not to be used for flight planning purposes.